Time;durP1;ratioP1;P1;durP2;ratioP2;P2;SDS_P1;SDS_P2;PMS_P1;PMS_P2;Temp;Humidity;BMP_temperature;BMP_pressure;BME280_temperature;BME280_humidity;BME280_pressure;Samples;Min_cycle;Max_cycle;Signal;HPM_P1;HPM_P2
2022/09/08 00:01:15;;;;;;;;;;;25.30;90.70;;;;;;5046587;28;19925;-60
2022/09/08 00:03:42;;;;;;;;;;;25.30;90.80;;;;;;5045551;28;19925;-58
2022/09/08 00:06:12;;;;;;;;;;;25.30;90.80;;;;;;5044431;28;19929;-59
2022/09/08 00:08:39;;;;;;;;;;;25.30;90.80;;;;;;5042704;28;19929;-58
2022/09/08 00:11:08;;;;;;;;;;;25.30;90.80;;;;;;5040686;28;19928;-60
2022/09/08 00:13:36;;;;;;;;;;;25.30;90.80;;;;;;5047241;28;19925;-59
2022/09/08 00:16:05;;;;;;;;;;;25.30;90.90;;;;;;5042203;28;19938;-58
2022/09/08 00:18:37;;;;;;;;;;;25.30;90.90;;;;;;5040958;28;20312;-58
2022/09/08 00:21:04;;;;;;;;;;;25.30;90.90;;;;;;5042439;28;20335;-60
2022/09/08 00:23:32;;;;;;;;;;;25.30;90.90;;;;;;5055950;28;19925;-61
2022/09/08 00:25:59;;;;;;;;;;;25.30;90.90;;;;;;5060933;28;19931;-59
2022/09/08 00:28:26;;;;;;;;;;;25.30;90.90;;;;;;5061611;28;20046;-59
2022/09/08 00:30:56;;;;;;;;;;;25.30;90.90;;;;;;5042493;28;19929;-59
2022/09/08 00:33:23;;;;;;;;;;;25.30;91.00;;;;;;5058767;28;20426;-59
2022/09/08 00:35:51;;;;;;;;;;;25.30;91.00;;;;;;5043170;28;19925;-61
2022/09/08 00:38:20;;;;;;;;;;;25.30;90.90;;;;;;5030489;28;19929;-61
2022/09/08 00:40:49;;;;;;;;;;;25.30;90.90;;;;;;5044265;28;19925;-59
2022/09/08 00:43:36;;;;;;;;;;;25.30;90.90;;;;;;5028329;28;20423;-57
2022/09/08 00:46:06;;;;;;;;;;;25.30;90.90;;;;;;5044138;28;19929;-58
2022/09/08 00:48:36;;;;;;;;;;;25.30;91.00;;;;;;5040488;28;19936;-59
2022/09/08 00:51:04;;;;;;;;;;;25.20;91.00;;;;;;5026675;28;19929;-59
2022/09/08 00:53:31;;;;;;;;;;;25.20;91.00;;;;;;5047870;28;19935;-59
2022/09/08 00:55:58;;;;;;;;;;;25.30;91.00;;;;;;5042426;28;19929;-60
2022/09/08 00:58:26;;;;;;;;;;;25.30;91.00;;;;;;5046610;28;19939;-58
2022/09/08 01:00:54;;;;;;;;;;;25.20;91.00;;;;;;5028257;28;19939;-58
2022/09/08 01:03:21;;;;;;;;;;;25.20;91.10;;;;;;5039333;28;19932;-58
2022/09/08 01:05:55;;;;;;;;;;;25.20;91.10;;;;;;5043732;28;19929;-57
2022/09/08 01:14:11;;;;;;;;;;;25.20;91.10;;;;;;4996931;28;19932;-58
2022/09/08 01:16:40;;;;;;;;;;;25.20;91.50;;;;;;5042213;28;19933;-59
2022/09/08 01:19:17;;;;;;;;;;;25.20;91.30;;;;;;5029500;28;20312;-58
2022/09/08 01:21:52;;;;;;;;;;;25.20;91.30;;;;;;5041518;28;19929;-59
2022/09/08 01:24:38;;;;;;;;;;;25.20;91.30;;;;;;5050027;28;19936;-59
2022/09/08 01:27:11;;;;;;;;;;;25.20;91.30;;;;;;5052253;28;19925;-59
2022/09/08 01:29:40;;;;;;;;;;;25.20;91.40;;;;;;5051605;28;20482;-59
2022/09/08 01:32:09;;;;;;;;;;;25.20;91.40;;;;;;5053798;28;19936;-58
2022/09/08 01:34:38;;;;;;;;;;;25.20;91.40;;;;;;5048373;28;20308;-59
2022/09/08 01:37:05;;;;;;;;;;;25.20;91.40;;;;;;5043504;28;19936;-59
2022/09/08 01:39:32;;;;;;;;;;;25.20;91.50;;;;;;5026320;28;19954;-58
2022/09/08 01:42:00;;;;;;;;;;;25.20;91.50;;;;;;5045434;28;19929;-57
2022/09/08 01:44:27;;;;;;;;;;;25.20;91.50;;;;;;5045327;28;19932;-54
2022/09/08 01:46:55;;;;;;;;;;;25.20;91.60;;;;;;5047758;28;19935;-57
2022/09/08 01:49:22;;;;;;;;;;;25.20;91.60;;;;;;5029707;28;19928;-57
2022/09/08 01:51:50;;;;;;;;;;;25.20;91.60;;;;;;5047947;28;19929;-57
2022/09/08 01:54:17;;;;;;;;;;;25.20;91.60;;;;;;5024725;28;19943;-57
2022/09/08 01:56:44;;;;;;;;;;;25.20;91.60;;;;;;5043427;28;20274;-59
2022/09/08 01:59:11;;;;;;;;;;;25.20;91.60;;;;;;5044546;28;19925;-57
2022/09/08 02:01:38;;;;;;;;;;;25.20;91.60;;;;;;5035710;28;19929;-58
2022/09/08 02:04:06;;;;;;;;;;;25.20;91.60;;;;;;5042412;28;19925;-59
2022/09/08 02:06:33;;;;;;;;;;;25.20;91.50;;;;;;5040243;28;20319;-57
2022/09/08 02:09:00;;;;;;;;;;;25.20;91.50;;;;;;5042680;28;20302;-59
2022/09/08 02:11:27;;;;;;;;;;;25.20;91.60;;;;;;5043547;28;19939;-59
2022/09/08 02:13:54;;;;;;;;;;;25.20;91.60;;;;;;5045495;28;20320;-60
2022/09/08 02:16:23;;;;;;;;;;;25.20;91.60;;;;;;5040117;28;20320;-59
2022/09/08 02:18:52;;;;;;;;;;;25.20;91.60;;;;;;5028650;28;19929;-60
2022/09/08 02:21:19;;;;;;;;;;;25.20;91.60;;;;;;5041314;28;19935;-59
2022/09/08 02:23:47;;;;;;;;;;;25.10;91.50;;;;;;5040802;28;19962;-59
2022/09/08 02:26:19;;;;;;;;;;;25.20;91.60;;;;;;5044606;28;19952;-60
2022/09/08 02:28:46;;;;;;;;;;;25.10;91.50;;;;;;5046053;28;19932;-60
2022/09/08 02:31:14;;;;;;;;;;;25.10;91.60;;;;;;5045169;28;19928;-59
2022/09/08 02:33:41;;;;;;;;;;;25.10;91.60;;;;;;5038407;28;20324;-58
2022/09/08 02:36:08;;;;;;;;;;;25.10;91.60;;;;;;5042428;28;19929;-59
2022/09/08 02:38:36;;;;;;;;;;;25.10;91.60;;;;;;5048093;28;19924;-61
2022/09/08 02:41:03;;;;;;;;;;;25.10;91.60;;;;;;5035980;28;19933;-60
2022/09/08 02:43:30;;;;;;;;;;;25.20;91.70;;;;;;5059133;28;19935;-59
2022/09/08 02:46:02;;;;;;;;;;;25.10;91.70;;;;;;5049257;28;19929;-59
2022/09/08 02:48:30;;;;;;;;;;;25.10;91.70;;;;;;5068274;28;19935;-60
2022/09/08 02:50:58;;;;;;;;;;;25.10;91.70;;;;;;5061237;28;19929;-59
2022/09/08 02:53:26;;;;;;;;;;;25.10;91.70;;;;;;5044569;28;19929;-60
2022/09/08 02:55:53;;;;;;;;;;;25.10;91.70;;;;;;5044694;28;19933;-61
2022/09/08 02:58:21;;;;;;;;;;;25.10;91.70;;;;;;5049064;28;19925;-58
2022/09/08 03:00:48;;;;;;;;;;;25.10;91.70;;;;;;5045065;28;19935;-58
2022/09/08 03:03:15;;;;;;;;;;;25.10;91.80;;;;;;5046825;28;19925;-60
2022/09/08 03:05:42;;;;;;;;;;;25.10;91.80;;;;;;5047162;28;20128;-60
2022/09/08 03:08:09;;;;;;;;;;;25.10;91.80;;;;;;5036454;28;19929;-57
2022/09/08 03:10:37;;;;;;;;;;;25.10;91.80;;;;;;5049543;28;19928;-59
2022/09/08 03:13:04;;;;;;;;;;;25.10;91.90;;;;;;5049599;28;19975;-59
2022/09/08 03:15:31;;;;;;;;;;;25.10;91.90;;;;;;5047362;28;19959;-60
2022/09/08 03:17:59;;;;;;;;;;;25.10;91.90;;;;;;5043967;28;19948;-58
2022/09/08 03:20:26;;;;;;;;;;;25.10;92.00;;;;;;5054227;28;19932;-57
2022/09/08 03:22:53;;;;;;;;;;;25.10;92.00;;;;;;5025258;28;19929;-57
2022/09/08 03:25:21;;;;;;;;;;;25.10;92.00;;;;;;5047846;28;19924;-59
2022/09/08 03:27:48;;;;;;;;;;;25.10;92.00;;;;;;5049884;28;20285;-59
2022/09/08 03:30:16;;;;;;;;;;;25.10;92.10;;;;;;5049432;28;19928;-59
2022/09/08 03:32:43;;;;;;;;;;;25.10;92.10;;;;;;5047167;28;20519;-60
2022/09/08 03:35:11;;;;;;;;;;;25.00;92.00;;;;;;5050006;28;19925;-59
2022/09/08 03:37:38;;;;;;;;;;;25.00;92.00;;;;;;5042512;28;19925;-59
2022/09/08 03:40:06;;;;;;;;;;;25.10;92.10;;;;;;5025741;28;19932;-60
2022/09/08 03:42:34;;;;;;;;;;;25.00;92.00;;;;;;5044273;28;19934;-60
2022/09/08 03:45:02;;;;;;;;;;;25.00;92.00;;;;;;5049845;28;20393;-58
2022/09/08 03:47:29;;;;;;;;;;;25.10;92.00;;;;;;5055772;28;19943;-58
2022/09/08 03:49:57;;;;;;;;;;;25.00;92.10;;;;;;5052714;28;19933;-60
2022/09/08 03:52:24;;;;;;;;;;;25.10;92.10;;;;;;5049863;28;19932;-59
2022/09/08 03:54:53;;;;;;;;;;;25.10;92.10;;;;;;5031744;28;19933;-60
2022/09/08 03:57:22;;;;;;;;;;;25.00;92.10;;;;;;5047326;28;19929;-59
2022/09/08 03:59:49;;;;;;;;;;;25.00;92.10;;;;;;5047053;28;19935;-60
2022/09/08 04:02:17;;;;;;;;;;;25.00;92.40;;;;;;5044847;28;19925;-58
2022/09/08 04:04:48;;;;;;;;;;;25.00;92.20;;;;;;5048560;28;19933;-60
2022/09/08 04:07:16;;;;;;;;;;;25.00;92.20;;;;;;5048910;28;19929;-59
2022/09/08 04:09:43;;;;;;;;;;;25.00;92.20;;;;;;5028094;28;20321;-60
2022/09/08 04:12:11;;;;;;;;;;;25.00;92.20;;;;;;5028068;28;19936;-59
2022/09/08 04:14:39;;;;;;;;;;;25.00;92.20;;;;;;5040609;28;19936;-59
2022/09/08 04:17:06;;;;;;;;;;;25.00;92.20;;;;;;5045894;28;19932;-58
2022/09/08 04:19:33;;;;;;;;;;;25.00;92.30;;;;;;5040547;28;19936;-58
2022/09/08 04:22:00;;;;;;;;;;;25.00;92.30;;;;;;5030888;28;19928;-60
2022/09/08 04:24:27;;;;;;;;;;;25.00;92.30;;;;;;5048429;28;19928;-59
2022/09/08 04:26:54;;;;;;;;;;;25.00;92.20;;;;;;5047773;28;19933;-60
2022/09/08 04:29:22;;;;;;;;;;;25.00;92.20;;;;;;5046655;28;19925;-60
2022/09/08 04:31:49;;;;;;;;;;;25.00;92.20;;;;;;5048726;28;19928;-59
2022/09/08 04:34:16;;;;;;;;;;;25.00;92.30;;;;;;5047574;28;20407;-60
2022/09/08 04:36:44;;;;;;;;;;;25.00;92.30;;;;;;5048910;28;19924;-60
2022/09/08 04:39:12;;;;;;;;;;;25.00;92.30;;;;;;5041218;28;19931;-58
2022/09/08 04:41:39;;;;;;;;;;;25.00;92.30;;;;;;5043878;28;19925;-59
2022/09/08 04:44:10;;;;;;;;;;;25.00;92.40;;;;;;5048453;28;19936;-59
2022/09/08 04:46:37;;;;;;;;;;;25.00;92.40;;;;;;5031525;28;19935;-55
2022/09/08 04:49:05;;;;;;;;;;;25.00;92.40;;;;;;5046713;28;19939;-55
2022/09/08 04:51:32;;;;;;;;;;;25.00;92.40;;;;;;5043381;28;19928;-58
2022/09/08 04:54:00;;;;;;;;;;;25.00;92.40;;;;;;5047268;28;19936;-56
2022/09/08 04:56:27;;;;;;;;;;;25.00;92.40;;;;;;5043917;28;20320;-59
2022/09/08 04:58:55;;;;;;;;;;;25.00;92.40;;;;;;5047398;28;20274;-59
2022/09/08 05:01:24;;;;;;;;;;;24.90;92.50;;;;;;5030409;28;19951;-60
2022/09/08 05:03:52;;;;;;;;;;;24.90;92.50;;;;;;5040394;28;19932;-58
2022/09/08 05:06:20;;;;;;;;;;;24.90;92.70;;;;;;5043977;28;20300;-58
2022/09/08 05:08:48;;;;;;;;;;;24.90;92.60;;;;;;5057423;28;19932;-59
2022/09/08 05:11:17;;;;;;;;;;;24.90;92.50;;;;;;5058019;28;20306;-59
2022/09/08 05:13:45;;;;;;;;;;;24.90;92.50;;;;;;5062277;28;20420;-61
2022/09/08 05:16:16;;;;;;;;;;;24.90;92.30;;;;;;5058457;28;19936;-58
2022/09/08 05:18:50;;;;;;;;;;;24.90;92.30;;;;;;5042069;28;19937;-59
2022/09/08 05:21:18;;;;;;;;;;;24.80;92.20;;;;;;5044745;28;19935;-59
2022/09/08 05:23:47;;;;;;;;;;;24.80;92.30;;;;;;5040802;28;20351;-61
2022/09/08 05:26:16;;;;;;;;;;;24.80;92.30;;;;;;5046885;28;19940;-57
2022/09/08 05:28:43;;;;;;;;;;;24.80;92.70;;;;;;5044296;28;19929;-60
2022/09/08 05:31:15;;;;;;;;;;;24.80;92.70;;;;;;5046608;28;19944;-61
2022/09/08 05:33:42;;;;;;;;;;;24.80;92.70;;;;;;5045419;28;20232;-62
2022/09/08 05:36:20;;;;;;;;;;;24.80;92.50;;;;;;5042247;28;19936;-60
2022/09/08 05:38:47;;;;;;;;;;;24.80;92.60;;;;;;5040851;28;19925;-59
2022/09/08 05:41:15;;;;;;;;;;;24.80;92.60;;;;;;5044045;28;20355;-60
2022/09/08 05:43:43;;;;;;;;;;;24.80;92.60;;;;;;5041367;28;19924;-59
2022/09/08 05:46:10;;;;;;;;;;;24.80;92.50;;;;;;5043252;28;19929;-60
2022/09/08 05:48:44;;;;;;;;;;;24.80;92.30;;;;;;5037682;28;19932;-61
2022/09/08 05:51:15;;;;;;;;;;;24.80;92.30;;;;;;5038126;28;19932;-60
2022/09/08 05:53:42;;;;;;;;;;;24.80;92.30;;;;;;5024669;28;19925;-61
2022/09/08 05:56:09;;;;;;;;;;;24.80;92.40;;;;;;5045524;28;19928;-60
2022/09/08 05:58:36;;;;;;;;;;;24.80;92.40;;;;;;5047721;28;20016;-58
2022/09/08 06:01:05;;;;;;;;;;;24.80;92.40;;;;;;5050039;28;20411;-59
2022/09/08 06:03:32;;;;;;;;;;;24.80;92.40;;;;;;5046338;28;19932;-55
2022/09/08 06:06:05;;;;;;;;;;;24.80;92.30;;;;;;5043539;28;20475;-58
2022/09/08 06:08:32;;;;;;;;;;;24.80;92.40;;;;;;5046329;28;19925;-57
2022/09/08 06:10:59;;;;;;;;;;;24.80;92.50;;;;;;5049315;28;19929;-61
2022/09/08 06:13:27;;;;;;;;;;;24.70;92.50;;;;;;5041819;28;19988;-60
2022/09/08 06:15:59;;;;;;;;;;;24.70;92.50;;;;;;5049058;28;19925;-59
2022/09/08 06:18:27;;;;;;;;;;;24.80;92.50;;;;;;5050934;28;19936;-61
2022/09/08 06:20:54;;;;;;;;;;;24.80;93.00;;;;;;5048210;28;19925;-60
2022/09/08 06:23:21;;;;;;;;;;;24.80;93.20;;;;;;5045366;28;20403;-59
2022/09/08 06:25:48;;;;;;;;;;;24.80;93.00;;;;;;5042714;28;19928;-58
2022/09/08 06:28:28;;;;;;;;;;;24.80;92.90;;;;;;5048345;28;19940;-58
2022/09/08 06:30:55;;;;;;;;;;;24.70;93.00;;;;;;5047770;28;20455;-63
2022/09/08 06:33:29;;;;;;;;;;;24.70;93.10;;;;;;5042133;28;19936;-59
2022/09/08 06:36:03;;;;;;;;;;;24.70;93.30;;;;;;5048635;28;20006;-57
2022/09/08 06:38:47;;;;;;;;;;;24.70;94.60;;;;;;5048786;28;19925;-57
2022/09/08 06:41:16;;;;;;;;;;;24.70;94.50;;;;;;5048579;28;20419;-56
2022/09/08 06:43:50;;;;;;;;;;;24.70;94.40;;;;;;5041229;28;19928;-57
2022/09/08 06:46:25;;;;;;;;;;;24.70;93.90;;;;;;5046864;28;19935;-59
2022/09/08 06:48:53;;;;;;;;;;;24.70;93.70;;;;;;5048551;28;19936;-59
2022/09/08 06:51:26;;;;;;;;;;;24.70;93.30;;;;;;5037556;28;19944;-59
2022/09/08 06:54:08;;;;;;;;;;;24.70;93.20;;;;;;5046712;28;19932;-59
2022/09/08 06:59:56;;;;;;;;;;;24.70;93.00;;;;;;4988332;28;19933;-58
2022/09/08 07:02:30;;;;;;;;;;;24.70;93.40;;;;;;4988637;28;20013;-59
2022/09/08 07:05:12;;;;;;;;;;;24.70;93.60;;;;;;4993568;28;19936;-59
2022/09/08 07:07:58;;;;;;;;;;;24.80;93.80;;;;;;4980104;28;20006;-56
2022/09/08 07:10:25;;;;;;;;;;;24.80;93.70;;;;;;4968469;28;19937;-58
2022/09/08 07:12:56;;;;;;;;;;;24.80;93.90;;;;;;4969335;28;19930;-59
2022/09/08 07:15:29;;;;;;;;;;;24.80;93.80;;;;;;4968438;28;19930;-59
2022/09/08 07:17:59;;;;;;;;;;;24.80;93.50;;;;;;4950497;28;19927;-61
2022/09/08 07:20:28;;;;;;;;;;;24.80;93.60;;;;;;4962319;28;19930;-60
2022/09/08 07:22:55;;;;;;;;;;;24.80;93.80;;;;;;4968812;28;20419;-59
2022/09/08 07:25:43;;;;;;;;;;;24.80;94.30;;;;;;4972062;28;20421;-60
2022/09/08 07:28:40;;;;;;;;;;;24.80;94.40;;;;;;4968462;28;19934;-56
2022/09/08 07:31:13;;;;;;;;;;;24.80;94.60;;;;;;4957534;28;19930;-53
2022/09/08 07:33:42;;;;;;;;;;;24.80;94.50;;;;;;4970038;28;19925;-57
2022/09/08 07:36:27;;;;;;;;;;;24.80;94.30;;;;;;4942587;28;19930;-61
2022/09/08 07:38:55;;;;;;;;;;;24.80;94.30;;;;;;4969814;28;19937;-58
2022/09/08 07:41:27;;;;;;;;;;;24.80;94.70;;;;;;4966539;28;19930;-60
2022/09/08 07:44:01;;;;;;;;;;;24.80;94.70;;;;;;4969703;28;20297;-57
2022/09/08 07:46:51;;;;;;;;;;;24.80;95.50;;;;;;4968581;28;19949;-61
2022/09/08 07:49:18;;;;;;;;;;;24.80;95.20;;;;;;4960068;28;19937;-64
2022/09/08 07:52:20;;;;;;;;;;;24.90;95.20;;;;;;4967755;28;20297;-59
2022/09/08 07:54:53;;;;;;;;;;;24.90;95.50;;;;;;4969656;28;19933;-59
2022/09/08 07:57:40;;;;;;;;;;;24.90;95.50;;;;;;4968691;28;19953;-59
2022/09/08 08:00:12;;;;;;;;;;;24.90;95.40;;;;;;4967397;28;19930;-58
2022/09/08 08:02:42;;;;;;;;;;;24.90;95.50;;;;;;4970072;28;20465;-60
2022/09/08 08:05:29;;;;;;;;;;;25.00;95.80;;;;;;4969362;28;19934;-55
2022/09/08 08:08:23;;;;;;;;;;;25.00;95.80;;;;;;4968162;28;19929;-59
2022/09/08 08:10:56;;;;;;;;;;;25.00;95.70;;;;;;4965752;28;19934;-58
2022/09/08 08:13:48;;;;;;;;;;;25.00;95.40;;;;;;4963613;28;19914;-61
2022/09/08 08:16:20;;;;;;;;;;;24.90;95.50;;;;;;4968276;28;19937;-59
2022/09/08 08:19:02;;;;;;;;;;;25.00;95.30;;;;;;4968635;28;19926;-60
2022/09/08 08:21:33;;;;;;;;;;;25.00;95.40;;;;;;4969399;28;19926;-57
2022/09/08 08:24:20;;;;;;;;;;;25.00;95.50;;;;;;4965835;28;19926;-58
2022/09/08 08:26:50;;;;;;;;;;;25.00;95.40;;;;;;4968304;28;20338;-56
2022/09/08 08:29:25;;;;;;;;;;;25.00;95.40;;;;;;4969195;28;20314;-58
2022/09/08 08:32:07;;;;;;;;;;;25.00;95.00;;;;;;4968633;28;20428;-59
2022/09/08 08:35:00;;;;;;;;;;;25.00;95.20;;;;;;4969628;28;19930;-59
2022/09/08 08:37:30;;;;;;;;;;;25.00;95.70;;;;;;4966048;28;19933;-61
2022/09/08 08:39:58;;;;;;;;;;;25.00;95.80;;;;;;4969286;28;19934;-57
2022/09/08 08:42:55;;;;;;;;;;;25.10;96.00;;;;;;4965582;28;19926;-60
2022/09/08 08:45:41;;;;;;;;;;;25.10;95.90;;;;;;4960203;28;19926;-61
2022/09/08 08:48:10;;;;;;;;;;;25.10;96.10;;;;;;4967569;28;19934;-60
2022/09/08 08:50:56;;;;;;;;;;;25.20;96.30;;;;;;4968672;28;19927;-56
2022/09/08 08:53:57;;;;;;;;;;;25.20;96.50;;;;;;4970246;28;20425;-63
2022/09/08 08:56:37;;;;;;;;;;;25.20;97.10;;;;;;4958166;28;19934;-63
2022/09/08 08:59:23;;;;;;;;;;;25.20;97.10;;;;;;4969087;28;19930;-59
2022/09/08 09:02:02;;;;;;;;;;;25.20;97.30;;;;;;4965007;28;20441;-62
2022/09/08 09:04:29;;;;;;;;;;;25.20;97.50;;;;;;4962780;28;19933;-64
2022/09/08 09:07:04;;;;;;;;;;;25.20;97.90;;;;;;4968322;28;19926;-61
2022/09/08 09:09:50;;;;;;;;;;;25.30;98.10;;;;;;4968404;28;19934;-62
2022/09/08 09:12:37;;;;;;;;;;;25.20;97.90;;;;;;4963130;28;19930;-60
2022/09/08 09:15:22;;;;;;;;;;;25.20;97.80;;;;;;4970457;28;19933;-57
2022/09/08 09:18:09;;;;;;;;;;;25.20;97.70;;;;;;4949530;28;19938;-64
2022/09/08 09:20:51;;;;;;;;;;;25.20;97.50;;;;;;4969868;28;19930;-61
2022/09/08 09:23:35;;;;;;;;;;;25.20;97.50;;;;;;4969667;28;19930;-60
2022/09/08 09:26:12;;;;;;;;;;;25.20;97.40;;;;;;4963425;28;19927;-62
2022/09/08 09:28:58;;;;;;;;;;;25.20;97.40;;;;;;4960249;28;19937;-59
2022/09/08 09:31:43;;;;;;;;;;;25.20;97.60;;;;;;4968383;28;20294;-62
2022/09/08 09:34:30;;;;;;;;;;;25.20;97.10;;;;;;4966982;28;19922;-59
2022/09/08 09:37:50;;;;;;;;;;;25.20;96.90;;;;;;4969793;28;19918;-62
2022/09/08 09:40:50;;;;;;;;;;;25.20;96.80;;;;;;4926037;29;19938;-60
2022/09/08 09:43:36;;;;;;;;;;;25.20;97.00;;;;;;4928654;28;19930;-56
2022/09/08 09:46:21;;;;;;;;;;;25.20;96.90;;;;;;4966532;28;19938;-58
2022/09/08 09:49:12;;;;;;;;;;;25.20;96.90;;;;;;4968869;28;19930;-58
2022/09/08 09:51:45;;;;;;;;;;;25.20;96.80;;;;;;4970882;28;19930;-62
2022/09/08 09:54:29;;;;;;;;;;;25.20;96.70;;;;;;4970062;28;19937;-60
2022/09/08 09:57:16;;;;;;;;;;;25.20;96.70;;;;;;4970341;28;20322;-59
2022/09/08 09:59:59;;;;;;;;;;;25.20;96.60;;;;;;4966451;28;19934;-61
2022/09/08 10:02:38;;;;;;;;;;;25.20;96.40;;;;;;4969006;28;19937;-61
2022/09/08 10:05:23;;;;;;;;;;;25.20;96.40;;;;;;4968153;28;19934;-54
2022/09/08 10:08:07;;;;;;;;;;;25.20;96.20;;;;;;4968582;28;19941;-60
2022/09/08 10:10:34;;;;;;;;;;;25.20;96.10;;;;;;4967061;28;20563;-61
2022/09/08 10:13:04;;;;;;;;;;;25.20;96.10;;;;;;4968455;28;19930;-60
2022/09/08 10:15:57;;;;;;;;;;;25.30;96.00;;;;;;4968554;28;19941;-59
2022/09/08 10:18:25;;;;;;;;;;;25.30;95.90;;;;;;4944236;28;19930;-61
2022/09/08 10:21:04;;;;;;;;;;;25.20;96.00;;;;;;4969039;28;20404;-61
2022/09/08 10:23:38;;;;;;;;;;;25.30;96.00;;;;;;4969334;28;19938;-62
2022/09/08 10:26:25;;;;;;;;;;;25.20;95.80;;;;;;4969552;28;19937;-62
2022/09/08 10:28:55;;;;;;;;;;;25.30;95.50;;;;;;4964380;28;19959;-60
2022/09/08 10:31:23;;;;;;;;;;;25.20;95.30;;;;;;4968398;28;19937;-62
2022/09/08 10:33:59;;;;;;;;;;;25.20;94.20;;;;;;4949612;28;19931;-61
2022/09/08 10:36:46;;;;;;;;;;;25.20;93.30;;;;;;4965901;28;20390;-62
2022/09/08 10:39:32;;;;;;;;;;;25.20;93.10;;;;;;4967132;28;19931;-63
2022/09/08 10:42:18;;;;;;;;;;;25.20;92.40;;;;;;4962404;28;19933;-59
2022/09/08 10:44:45;;;;;;;;;;;25.10;92.20;;;;;;4966206;28;19937;-61
2022/09/08 10:47:35;;;;;;;;;;;25.10;92.00;;;;;;4965561;28;20421;-64
2022/09/08 10:50:07;;;;;;;;;;;25.00;91.50;;;;;;4965394;28;19926;-64
2022/09/08 10:52:46;;;;;;;;;;;25.10;91.30;;;;;;4963175;28;19926;-59
2022/09/08 10:55:13;;;;;;;;;;;25.00;91.00;;;;;;4968767;28;19934;-59
2022/09/08 10:57:59;;;;;;;;;;;25.00;90.50;;;;;;4970170;28;19946;-59
2022/09/08 11:00:30;;;;;;;;;;;25.00;90.40;;;;;;4977871;28;19933;-61
2022/09/08 11:03:11;;;;;;;;;;;25.00;90.20;;;;;;4967853;28;19930;-61
2022/09/08 11:06:01;;;;;;;;;;;25.00;89.80;;;;;;4969270;28;19953;-59
2022/09/08 11:08:40;;;;;;;;;;;25.00;89.60;;;;;;4971136;28;19933;-62
2022/09/08 11:11:10;;;;;;;;;;;25.00;90.00;;;;;;4958346;28;20323;-61
2022/09/08 11:13:52;;;;;;;;;;;25.00;90.10;;;;;;4970517;28;19933;-61
2022/09/08 11:16:31;;;;;;;;;;;25.10;90.60;;;;;;4970381;28;20432;-62
2022/09/08 11:19:16;;;;;;;;;;;25.10;90.60;;;;;;4970308;28;19930;-64
2022/09/08 11:22:04;;;;;;;;;;;25.10;90.90;;;;;;4967418;28;20453;-59
2022/09/08 11:24:38;;;;;;;;;;;25.20;91.00;;;;;;4968688;28;20361;-62
2022/09/08 11:27:20;;;;;;;;;;;25.20;91.10;;;;;;4968284;28;20398;-60
2022/09/08 11:30:17;;;;;;;;;;;25.20;91.20;;;;;;4970308;28;20698;-60
2022/09/08 11:32:59;;;;;;;;;;;25.20;91.20;;;;;;4949670;28;19929;-62
2022/09/08 11:35:31;;;;;;;;;;;25.20;91.10;;;;;;4949573;28;19926;-60
2022/09/08 11:38:04;;;;;;;;;;;25.10;91.30;;;;;;4965296;28;20056;-59
2022/09/08 11:41:07;;;;;;;;;;;25.10;91.30;;;;;;4969994;28;20394;-59
2022/09/08 11:43:36;;;;;;;;;;;25.10;91.30;;;;;;4905171;29;19927;-58
2022/09/08 11:46:15;;;;;;;;;;;25.00;91.20;;;;;;4960399;28;19934;-59
2022/09/08 11:48:43;;;;;;;;;;;25.10;91.30;;;;;;4966437;28;19934;-61
2022/09/08 11:51:32;;;;;;;;;;;25.10;91.30;;;;;;4971788;28;19926;-60
2022/09/08 11:54:23;;;;;;;;;;;25.10;91.40;;;;;;4969874;28;19930;-59
2022/09/08 11:57:00;;;;;;;;;;;25.10;91.50;;;;;;4970196;28;19930;-59
2022/09/08 11:59:33;;;;;;;;;;;25.10;91.60;;;;;;4932742;29;19931;-59
2022/09/08 12:02:03;;;;;;;;;;;25.10;91.60;;;;;;4947763;29;20413;-57
2022/09/08 12:04:40;;;;;;;;;;;25.10;91.70;;;;;;4932424;29;19938;-58
2022/09/08 12:07:07;;;;;;;;;;;25.10;91.70;;;;;;4932473;29;19926;-59
2022/09/08 12:09:46;;;;;;;;;;;25.10;91.70;;;;;;4931294;29;20394;-58
2022/09/08 12:12:13;;;;;;;;;;;25.10;91.70;;;;;;4932125;29;19938;-61
2022/09/08 12:14:41;;;;;;;;;;;25.10;91.80;;;;;;4931835;29;19950;-61
2022/09/08 12:17:20;;;;;;;;;;;25.10;91.80;;;;;;4932148;29;19942;-60
2022/09/08 12:20:11;;;;;;;;;;;25.10;91.80;;;;;;4929827;29;19961;-57
2022/09/08 12:22:56;;;;;;;;;;;25.10;91.80;;;;;;4932334;29;19930;-60
2022/09/08 12:25:42;;;;;;;;;;;25.10;91.80;;;;;;4923969;29;20391;-56
2022/09/08 12:28:38;;;;;;;;;;;25.10;91.80;;;;;;4932510;29;19954;-62
2022/09/08 12:31:12;;;;;;;;;;;25.10;91.90;;;;;;4932648;29;19930;-60
2022/09/08 12:33:54;;;;;;;;;;;25.10;91.80;;;;;;4932012;29;19931;-61
2022/09/08 12:36:34;;;;;;;;;;;25.10;91.80;;;;;;4930977;29;19927;-61
2022/09/08 12:39:23;;;;;;;;;;;25.10;91.90;;;;;;4927400;29;19930;-57
2022/09/08 12:42:08;;;;;;;;;;;25.10;91.80;;;;;;4931816;29;19937;-60
2022/09/08 12:44:39;;;;;;;;;;;25.10;91.80;;;;;;4931150;29;19934;-57
2022/09/08 12:47:12;;;;;;;;;;;25.10;91.80;;;;;;4947907;28;19942;-61
2022/09/08 12:49:55;;;;;;;;;;;25.20;91.80;;;;;;4932099;29;19931;-59
2022/09/08 12:52:41;;;;;;;;;;;25.20;91.70;;;;;;4953201;28;19927;-59
2022/09/08 12:55:14;;;;;;;;;;;25.20;91.70;;;;;;4923493;29;19938;-58
2022/09/08 12:57:42;;;;;;;;;;;25.20;91.60;;;;;;4948659;28;19941;-60
2022/09/08 13:00:11;;;;;;;;;;;25.20;91.60;;;;;;4970265;28;19937;-58
2022/09/08 13:02:44;;;;;;;;;;;25.20;91.60;;;;;;4968595;28;19937;-58
2022/09/08 13:05:32;;;;;;;;;;;25.20;91.50;;;;;;4967433;28;19953;-61
2022/09/08 13:08:18;;;;;;;;;;;25.30;91.50;;;;;;4966117;28;19933;-58
2022/09/08 13:10:46;;;;;;;;;;;25.30;91.50;;;;;;4967337;28;20386;-58
2022/09/08 13:13:31;;;;;;;;;;;25.30;91.50;;;;;;4969643;28;19934;-58
2022/09/08 13:16:07;;;;;;;;;;;25.30;91.50;;;;;;4970170;28;19930;-60
2022/09/08 13:18:53;;;;;;;;;;;25.30;91.50;;;;;;4968545;28;20436;-60
2022/09/08 13:21:30;;;;;;;;;;;25.30;91.50;;;;;;4951827;28;19937;-57
2022/09/08 13:24:05;;;;;;;;;;;25.40;91.50;;;;;;4968043;28;19930;-60
2022/09/08 13:26:58;;;;;;;;;;;25.40;91.50;;;;;;4969885;28;20279;-61
2022/09/08 13:29:34;;;;;;;;;;;25.30;91.50;;;;;;4969606;28;19926;-60
2022/09/08 13:32:47;;;;;;;;;;;25.30;91.50;;;;;;4969709;28;19972;-60
2022/09/08 13:35:26;;;;;;;;;;;25.30;91.50;;;;;;4969507;28;19941;-59
2022/09/08 13:37:56;;;;;;;;;;;25.40;91.50;;;;;;4962971;28;19930;-60
2022/09/08 13:40:34;;;;;;;;;;;25.40;91.40;;;;;;4970040;28;19930;-62
2022/09/08 13:43:20;;;;;;;;;;;25.40;91.40;;;;;;4963678;28;19930;-59
2022/09/08 13:45:47;;;;;;;;;;;25.40;91.40;;;;;;4969043;28;19933;-60
2022/09/08 13:48:23;;;;;;;;;;;25.40;91.40;;;;;;4968635;28;19926;-59
2022/09/08 13:51:00;;;;;;;;;;;25.40;91.40;;;;;;4970266;28;20357;-60
2022/09/08 13:53:53;;;;;;;;;;;25.40;91.40;;;;;;4964285;28;19934;-58
2022/09/08 13:56:26;;;;;;;;;;;25.30;91.50;;;;;;4970495;28;20390;-60
2022/09/08 13:59:01;;;;;;;;;;;25.30;91.50;;;;;;4969762;28;20409;-58
2022/09/08 14:01:30;;;;;;;;;;;25.30;91.50;;;;;;4969605;28;19952;-59
2022/09/08 14:04:02;;;;;;;;;;;25.30;91.50;;;;;;4969741;28;19937;-57
2022/09/08 14:06:48;;;;;;;;;;;25.30;91.80;;;;;;4968288;28;19926;-58
2022/09/08 14:09:20;;;;;;;;;;;25.30;91.50;;;;;;4968318;28;19930;-59
2022/09/08 14:11:50;;;;;;;;;;;25.30;91.50;;;;;;4968461;28;19929;-60
2022/09/08 14:14:18;;;;;;;;;;;25.50;91.40;;;;;;4972467;28;19926;-60
2022/09/08 14:16:45;;;;;;;;;;;25.60;91.30;;;;;;4962970;28;19934;-59
2022/09/08 14:19:21;;;;;;;;;;;25.70;91.20;;;;;;4969324;28;19930;-58
2022/09/08 14:21:55;;;;;;;;;;;25.70;91.10;;;;;;4969834;28;19933;-58
2022/09/08 14:24:55;;;;;;;;;;;25.80;91.00;;;;;;4968203;28;20469;-59
2022/09/08 14:27:34;;;;;;;;;;;25.90;90.90;;;;;;4943802;28;19933;-60
2022/09/08 14:30:11;;;;;;;;;;;26.00;90.80;;;;;;4968381;28;19953;-60
2022/09/08 14:33:02;;;;;;;;;;;26.00;90.70;;;;;;4971885;28;19937;-60
2022/09/08 14:35:33;;;;;;;;;;;26.10;90.70;;;;;;4945323;28;19933;-61
2022/09/08 14:38:12;;;;;;;;;;;26.20;90.60;;;;;;4966701;28;19930;-59
2022/09/08 14:40:43;;;;;;;;;;;26.20;90.60;;;;;;4972655;28;20413;-58
2022/09/08 14:43:29;;;;;;;;;;;26.20;90.50;;;;;;4972719;28;19930;-59
2022/09/08 14:46:08;;;;;;;;;;;26.30;90.50;;;;;;4971766;28;19933;-55
2022/09/08 14:48:52;;;;;;;;;;;26.30;90.50;;;;;;4965064;28;19930;-58
2022/09/08 14:51:22;;;;;;;;;;;26.20;90.50;;;;;;4971672;28;19926;-58
2022/09/08 14:53:58;;;;;;;;;;;26.20;90.50;;;;;;4973120;28;20302;-59
2022/09/08 14:56:31;;;;;;;;;;;26.20;90.50;;;;;;4971763;28;19957;-60
2022/09/08 14:59:17;;;;;;;;;;;26.20;90.50;;;;;;4971138;28;19937;-60
2022/09/08 15:01:48;;;;;;;;;;;26.10;90.60;;;;;;4968896;28;19930;-57
2022/09/08 15:04:16;;;;;;;;;;;26.00;90.70;;;;;;4970106;28;19934;-59
2022/09/08 15:06:44;;;;;;;;;;;25.90;90.70;;;;;;4972272;28;19933;-60